createdAt,value
2017-10-27T00:00:04.604Z,16.53
2017-10-27T00:02:33.625Z,18.07
2017-10-27T00:05:01.155Z,21.80
2017-10-27T00:07:29.518Z,16.13
2017-10-27T00:09:57.054Z,20.70
2017-10-27T00:12:24.593Z,18.63
2017-10-27T00:14:52.152Z,19.00
2017-10-27T00:17:19.701Z,22.53
2017-10-27T00:19:47.240Z,22.67
2017-10-27T00:22:14.801Z,25.10
2017-10-27T00:24:42.324Z,28.80
2017-10-27T00:27:09.865Z,21.63
2017-10-27T00:29:37.444Z,20.17
2017-10-27T00:32:05.002Z,20.23
2017-10-27T00:34:32.546Z,21.00
2017-10-27T00:37:00.119Z,29.57
2017-10-27T00:39:27.658Z,24.00
2017-10-27T00:41:55.293Z,23.20
2017-10-27T00:44:22.869Z,22.23
2017-10-27T00:46:51.558Z,26.93
2017-10-27T00:49:19.189Z,25.73
2017-10-27T00:51:47.514Z,25.03
2017-10-27T00:54:15.047Z,26.33
2017-10-27T00:56:42.577Z,24.83
2017-10-27T00:59:10.128Z,24.63
2017-10-27T01:01:40.015Z,25.93
2017-10-27T01:04:07.557Z,22.00
2017-10-27T01:06:35.121Z,24.37
2017-10-27T01:09:02.650Z,21.90
2017-10-27T01:11:30.188Z,22.07
2017-10-27T01:13:57.737Z,20.60
2017-10-27T01:16:25.272Z,24.83
2017-10-27T01:18:52.853Z,20.83
2017-10-27T01:21:20.639Z,21.97
2017-10-27T01:23:48.989Z,24.13
2017-10-27T01:26:17.353Z,24.97
2017-10-27T01:28:44.940Z,22.57
2017-10-27T01:31:12.481Z,26.73
2017-10-27T01:33:40.014Z,22.93
2017-10-27T01:36:07.576Z,23.93
2017-10-27T01:38:35.100Z,20.70
2017-10-27T01:41:02.640Z,24.37
2017-10-27T01:43:30.216Z,23.33
2017-10-27T01:45:57.756Z,23.17
2017-10-27T01:48:25.291Z,27.10
2017-10-27T01:50:52.902Z,21.73
2017-10-27T01:53:20.444Z,17.53
2017-10-27T01:55:48.745Z,23.13
2017-10-27T01:58:16.566Z,23.07
2017-10-27T02:00:44.932Z,20.53
2017-10-27T02:03:13.245Z,26.70
2017-10-27T02:05:40.821Z,27.83
2017-10-27T02:08:09.124Z,23.73
2017-10-27T02:10:36.658Z,20.33
2017-10-27T02:13:04.463Z,22.57
2017-10-27T02:15:32.007Z,23.93
2017-10-27T02:17:59.549Z,25.17
2017-10-27T02:20:27.103Z,21.33
2017-10-27T02:22:54.632Z,28.27
2017-10-27T02:25:22.173Z,20.07
2017-10-27T02:27:49.733Z,20.77
2017-10-27T02:30:20.342Z,26.90
2017-10-27T02:32:50.356Z,22.00
2017-10-27T02:35:20.196Z,24.83
2017-10-27T02:37:49.386Z,24.20
2017-10-27T02:40:16.944Z,19.93
2017-10-27T02:42:44.480Z,21.37
2017-10-27T02:45:12.053Z,21.20
2017-10-27T02:47:39.611Z,19.50
2017-10-27T02:50:07.156Z,19.60
2017-10-27T02:52:34.737Z,25.67
2017-10-27T02:55:02.632Z,22.53
2017-10-27T02:57:30.160Z,23.40
2017-10-27T02:59:58.235Z,17.83
2017-10-27T03:02:25.748Z,8.30
2017-10-27T03:04:53.281Z,5.77
2017-10-27T03:07:20.849Z,3.47
2017-10-27T03:09:48.377Z,4.07
2017-10-27T03:12:15.914Z,3.30
2017-10-27T03:14:43.477Z,2.60
2017-10-27T03:17:12.593Z,1.60
2017-10-27T03:19:43.443Z,8.77
2017-10-27T03:22:14.240Z,3.13
2017-10-27T03:24:45.167Z,3.20
2017-10-27T03:27:18.149Z,0.77
2017-10-27T03:29:49.007Z,3.07
2017-10-27T03:32:20.914Z,2.00
2017-10-27T03:34:50.894Z,2.67
2017-10-27T03:37:21.501Z,4.43
2017-10-27T03:39:52.215Z,1.90
2017-10-27T03:42:22.098Z,5.00
2017-10-27T03:44:52.021Z,4.80
2017-10-27T03:47:22.356Z,2.90
2017-10-27T03:49:55.159Z,5.53
2017-10-27T03:52:24.799Z,8.60
2017-10-27T03:54:54.853Z,4.93
2017-10-27T03:57:22.391Z,6.87
2017-10-27T03:59:49.926Z,11.93
2017-10-27T04:02:18.236Z,4.80
2017-10-27T04:04:45.763Z,2.67
2017-10-27T04:07:13.284Z,3.13
2017-10-27T04:09:41.245Z,5.27
2017-10-27T04:12:09.540Z,11.60
2017-10-27T04:14:37.119Z,2.37
2017-10-27T04:17:04.664Z,5.40
2017-10-27T04:19:32.187Z,5.47
2017-10-27T04:21:59.712Z,2.27
2017-10-27T04:24:27.491Z,2.90
2017-10-27T04:26:55.040Z,6.67
2017-10-27T04:29:23.031Z,3.83
2017-10-27T04:31:51.705Z,4.03
2017-10-27T04:34:19.293Z,5.10
2017-10-27T04:36:46.924Z,5.43
2017-10-27T04:39:14.548Z,6.23
2017-10-27T04:41:42.073Z,5.23
2017-10-27T04:44:10.581Z,6.83
2017-10-27T04:46:38.363Z,6.97
2017-10-27T04:49:05.957Z,7.90
2017-10-27T04:51:33.557Z,12.40
2017-10-27T04:54:01.968Z,10.27
2017-10-27T04:56:29.530Z,7.93
2017-10-27T04:58:57.123Z,14.17
2017-10-27T05:01:25.507Z,10.03
2017-10-27T05:03:53.113Z,10.03
2017-10-27T05:06:20.672Z,11.40
2017-10-27T05:08:49.075Z,11.43
2017-10-27T05:11:18.995Z,6.53
2017-10-27T05:13:46.598Z,7.33
2017-10-27T05:16:15.010Z,9.03
2017-10-27T05:18:48.176Z,8.83
2017-10-27T05:21:21.332Z,5.97
2017-10-27T05:23:54.460Z,5.97
2017-10-27T05:26:22.088Z,5.03
2017-10-27T05:28:49.734Z,4.83
2017-10-27T05:31:17.269Z,6.83
2017-10-27T05:33:44.946Z,5.93
2017-10-27T05:36:13.322Z,6.73
2017-10-27T05:38:41.683Z,4.80
2017-10-27T05:41:09.230Z,5.27
2017-10-27T05:43:36.746Z,4.77
2017-10-27T05:46:04.287Z,9.70
2017-10-27T05:48:31.829Z,5.53
2017-10-27T05:50:59.356Z,5.00
2017-10-27T05:53:26.883Z,6.10
2017-10-27T05:55:55.210Z,8.77
2017-10-27T05:58:22.725Z,7.70
2017-10-27T06:00:50.257Z,3.57
2017-10-27T06:03:17.815Z,3.33
2017-10-27T06:05:45.340Z,5.20
2017-10-27T06:08:12.858Z,5.27
2017-10-27T06:10:41.185Z,4.15
2017-10-27T06:13:09.190Z,11.87
2017-10-27T06:15:37.514Z,28.90
2017-10-27T06:18:05.627Z,12.20
2017-10-27T06:20:33.158Z,6.17
2017-10-27T06:23:00.716Z,7.83
2017-10-27T06:25:28.555Z,9.43
2017-10-27T06:27:56.959Z,6.53
2017-10-27T06:30:26.318Z,7.53
2017-10-27T06:32:53.997Z,7.23
2017-10-27T06:35:21.613Z,9.67
2017-10-27T06:37:49.288Z,5.20
2017-10-27T06:40:17.695Z,7.60
2017-10-27T06:42:46.043Z,7.73
2017-10-27T06:45:13.643Z,6.03
2017-10-27T06:47:41.262Z,6.13
2017-10-27T06:50:09.625Z,10.40
2017-10-27T06:52:37.236Z,6.77
2017-10-27T06:55:04.804Z,8.47
2017-10-27T06:57:33.101Z,6.33
2017-10-27T07:00:00.621Z,8.53
2017-10-27T07:02:29.071Z,7.73
2017-10-27T07:04:57.460Z,7.73
2017-10-27T07:07:24.980Z,8.30
2017-10-27T07:09:52.697Z,7.40
2017-10-27T07:12:20.261Z,12.00
2017-10-27T07:14:47.797Z,5.07
2017-10-27T07:17:15.365Z,11.00
2017-10-27T07:19:42.902Z,12.40
2017-10-27T07:22:10.431Z,5.17
2017-10-27T07:24:37.988Z,5.90
2017-10-27T07:27:05.512Z,6.37
2017-10-27T07:29:33.047Z,11.80
2017-10-27T07:32:00.594Z,12.93
2017-10-27T07:34:28.175Z,5.43
2017-10-27T07:36:56.487Z,4.63
2017-10-27T07:39:24.413Z,7.17
2017-10-27T07:41:51.943Z,5.80
2017-10-27T07:44:20.236Z,13.50
2017-10-27T07:46:47.779Z,6.63
2017-10-27T07:49:15.319Z,6.50
2017-10-27T07:51:43.092Z,9.80
2017-10-27T07:54:10.694Z,7.20
2017-10-27T07:56:38.287Z,8.70
2017-10-27T07:59:05.900Z,9.03
2017-10-27T08:01:33.495Z,7.03
2017-10-27T08:04:01.086Z,6.53
2017-10-27T08:06:28.602Z,6.93
2017-10-27T08:08:56.146Z,8.17
2017-10-27T08:11:23.685Z,6.60
2017-10-27T08:13:51.235Z,6.37
2017-10-27T08:16:19.552Z,6.00
2017-10-27T08:18:47.083Z,5.77
2017-10-27T08:21:14.624Z,7.53
2017-10-27T08:23:42.184Z,5.93
2017-10-27T08:26:09.719Z,5.67
2017-10-27T08:28:37.253Z,3.37
2017-10-27T08:31:04.805Z,6.93
2017-10-27T08:33:32.341Z,6.57
2017-10-27T08:35:59.864Z,6.80
2017-10-27T08:38:28.188Z,8.20
2017-10-27T08:40:55.707Z,7.23
2017-10-27T08:43:23.240Z,13.90
2017-10-27T08:45:50.780Z,13.70
2017-10-27T08:48:18.311Z,6.93
2017-10-27T08:50:46.604Z,10.63
2017-10-27T08:53:14.148Z,5.00
2017-10-27T08:55:41.686Z,7.87
2017-10-27T08:58:09.198Z,9.07
2017-10-27T09:00:37.511Z,6.93
2017-10-27T09:03:05.035Z,9.07
2017-10-27T09:05:32.568Z,11.73
2017-10-27T09:08:00.111Z,4.27
2017-10-27T09:10:27.661Z,3.93
2017-10-27T09:12:55.190Z,7.07
2017-10-27T09:15:23.577Z,6.13
2017-10-27T09:17:51.182Z,3.03
2017-10-27T09:20:19.565Z,6.77
2017-10-27T09:22:47.134Z,5.47
2017-10-27T09:25:14.666Z,5.80
2017-10-27T09:27:42.183Z,10.80
2017-10-27T09:30:09.757Z,20.67
2017-10-27T09:32:37.291Z,10.83
2017-10-27T09:35:05.571Z,4.33
2017-10-27T09:37:33.114Z,2.87
2017-10-27T09:40:00.645Z,2.13
2017-10-27T09:42:28.236Z,5.70
2017-10-27T09:44:56.004Z,2.80
2017-10-27T09:47:23.780Z,2.87
2017-10-27T09:49:52.066Z,6.27
2017-10-27T09:52:19.640Z,3.27
2017-10-27T09:54:47.197Z,9.50
2017-10-27T09:57:14.793Z,4.60
2017-10-27T09:59:42.854Z,1.97
2017-10-27T10:02:10.491Z,7.77
2017-10-27T10:04:38.108Z,2.50
2017-10-27T10:07:05.714Z,2.23
2017-10-27T10:09:33.291Z,2.17
2017-10-27T10:12:01.847Z,1.60
2017-10-27T10:14:29.692Z,1.67
2017-10-27T10:16:57.309Z,3.87
2017-10-27T10:19:24.860Z,4.23
2017-10-27T10:21:52.484Z,1.70
2017-10-27T10:24:20.023Z,1.97
2017-10-27T10:26:48.322Z,2.00
2017-10-27T10:29:15.875Z,1.17
2017-10-27T10:31:43.399Z,3.80
2017-10-27T10:34:10.942Z,2.93
2017-10-27T10:36:38.504Z,3.20
2017-10-27T10:39:06.041Z,7.33
2017-10-27T10:41:34.730Z,2.30
2017-10-27T10:44:02.378Z,3.10
2017-10-27T10:46:30.001Z,5.77
2017-10-27T10:48:57.578Z,2.53
2017-10-27T10:51:25.974Z,3.27
2017-10-27T10:53:53.626Z,2.30
2017-10-27T10:56:21.257Z,1.03
2017-10-27T10:58:49.636Z,6.57
2017-10-27T11:01:17.184Z,2.20
2017-10-27T11:03:45.481Z,2.07
2017-10-27T11:06:13.043Z,4.47
2017-10-27T11:08:40.582Z,2.70
2017-10-27T11:11:08.111Z,2.63
2017-10-27T11:13:35.667Z,2.77
2017-10-27T11:16:03.431Z,2.30
2017-10-27T11:18:30.951Z,4.30
2017-10-27T11:20:58.503Z,2.53
2017-10-27T11:23:26.962Z,1.47
2017-10-27T11:25:55.310Z,3.40
2017-10-27T11:28:22.867Z,4.43
2017-10-27T11:30:50.825Z,0.40
2017-10-27T11:33:18.469Z,2.87
2017-10-27T11:35:46.100Z,3.90
2017-10-27T11:38:13.672Z,2.90
2017-10-27T11:40:41.259Z,0.52
2017-10-27T11:43:09.675Z,2.25
2017-10-27T11:45:37.284Z,4.87
2017-10-27T11:48:05.576Z,2.00
2017-10-27T11:50:33.178Z,2.77
2017-10-27T11:53:01.476Z,1.67
2017-10-27T11:55:29.006Z,5.53
2017-10-27T11:57:57.553Z,6.37
2017-10-27T12:00:25.093Z,3.53
2017-10-27T12:02:53.413Z,5.17
2017-10-27T12:05:21.028Z,0.50
2017-10-27T12:07:48.679Z,8.63
2017-10-27T12:10:16.340Z,3.50
2017-10-27T12:12:43.973Z,1.63
2017-10-27T12:15:11.559Z,3.27
2017-10-27T12:17:39.091Z,3.97
2017-10-27T12:20:06.656Z,1.97
2017-10-27T12:22:34.187Z,4.77
2017-10-27T12:25:01.740Z,6.93
2017-10-27T12:27:29.311Z,3.33
2017-10-27T12:29:56.836Z,1.83
2017-10-27T12:32:24.672Z,2.23
2017-10-27T12:34:52.312Z,3.00
2017-10-27T12:37:26.155Z,2.73
2017-10-27T12:39:53.736Z,6.70
2017-10-27T12:42:21.326Z,1.97
2017-10-27T12:44:49.735Z,3.13
2017-10-27T12:47:17.318Z,5.83
2017-10-27T12:49:44.851Z,3.47
2017-10-27T12:52:12.376Z,4.73
2017-10-27T12:54:40.686Z,5.17
2017-10-27T12:57:08.195Z,4.83
2017-10-27T12:59:36.525Z,5.43
2017-10-27T13:02:04.861Z,5.80
2017-10-27T13:04:32.475Z,2.23
2017-10-27T13:07:00.064Z,5.13
2017-10-27T13:09:27.604Z,9.03
2017-10-27T13:11:55.131Z,7.67
2017-10-27T13:14:22.676Z,5.90
2017-10-27T13:16:50.215Z,5.90
2017-10-27T13:19:17.743Z,3.27
2017-10-27T13:21:45.279Z,3.20
2017-10-27T13:24:13.628Z,3.93
2017-10-27T13:26:41.128Z,2.37
2017-10-27T13:29:08.918Z,2.70
2017-10-27T13:31:37.235Z,3.83
2017-10-27T13:34:04.760Z,2.37
2017-10-27T13:36:32.283Z,5.43
2017-10-27T13:39:06.073Z,5.37
2017-10-27T13:41:34.425Z,7.07
2017-10-27T13:44:01.968Z,1.97
2017-10-27T13:46:30.291Z,5.33
2017-10-27T13:48:57.812Z,4.50
2017-10-27T13:51:25.347Z,4.10
2017-10-27T13:53:52.908Z,3.87
2017-10-27T13:56:21.218Z,3.30
2017-10-27T13:58:49.240Z,6.00
2017-10-27T14:01:16.802Z,4.13
2017-10-27T14:03:44.325Z,9.13
2017-10-27T14:06:11.857Z,1.83
2017-10-27T14:08:40.411Z,4.33
2017-10-27T14:11:08.778Z,7.40
2017-10-27T14:13:36.413Z,6.27
2017-10-27T14:16:04.835Z,5.20
2017-10-27T14:18:32.470Z,2.93
2017-10-27T14:21:00.055Z,5.80
2017-10-27T14:23:27.675Z,8.27
2017-10-27T14:25:55.289Z,4.77
2017-10-27T14:28:23.574Z,7.33
2017-10-27T14:30:51.120Z,3.13
2017-10-27T14:33:20.448Z,3.20
2017-10-27T14:35:47.975Z,5.40
2017-10-27T14:38:15.539Z,11.73
2017-10-27T14:40:43.055Z,3.70
2017-10-27T14:43:10.575Z,5.10
2017-10-27T14:45:38.120Z,8.13
2017-10-27T14:48:06.407Z,4.47
2017-10-27T14:50:33.942Z,7.10
2017-10-27T14:53:02.562Z,4.60
2017-10-27T14:55:30.097Z,3.27
2017-10-27T14:57:57.614Z,5.10
2017-10-27T15:00:26.184Z,8.23
2017-10-27T15:02:53.783Z,4.00
2017-10-27T15:05:21.439Z,2.50
2017-10-27T15:07:49.129Z,1.80
2017-10-27T15:10:16.643Z,5.10
2017-10-27T15:12:44.199Z,3.00
2017-10-27T15:15:12.549Z,6.07
2017-10-27T15:17:40.834Z,7.40
2017-10-27T15:20:08.420Z,8.40
2017-10-27T15:22:36.125Z,2.97
2017-10-27T15:25:03.880Z,2.93
2017-10-27T15:27:31.517Z,6.90
2017-10-27T15:29:59.254Z,4.00
2017-10-27T15:32:27.035Z,2.37
2017-10-27T15:34:54.713Z,2.87
2017-10-27T15:37:22.595Z,4.03
2017-10-27T15:39:51.021Z,7.20
2017-10-27T15:42:18.765Z,5.80
2017-10-27T15:44:46.550Z,4.93
2017-10-27T15:47:14.191Z,3.57
2017-10-27T15:49:41.799Z,2.40
2017-10-27T15:52:09.674Z,9.63
2017-10-27T15:54:37.422Z,2.77
2017-10-27T15:57:05.217Z,0.63
2017-10-27T15:59:36.139Z,4.13
2017-10-27T16:02:03.988Z,6.40
2017-10-27T16:04:31.680Z,1.80
2017-10-27T16:06:59.361Z,5.27
2017-10-27T16:09:26.902Z,4.97
2017-10-27T16:11:54.481Z,5.77
2017-10-27T16:14:22.826Z,5.60
2017-10-27T16:16:50.388Z,4.83
2017-10-27T16:19:18.822Z,2.37
2017-10-27T16:21:46.501Z,5.40
2017-10-27T16:24:14.044Z,5.57
2017-10-27T16:26:41.907Z,2.80
2017-10-27T16:29:09.590Z,6.13
2017-10-27T16:31:37.230Z,5.33
2017-10-27T16:34:04.954Z,4.27
2017-10-27T16:36:32.765Z,3.63
2017-10-27T16:39:00.537Z,8.20
2017-10-27T16:41:28.326Z,3.63
2017-10-27T16:43:55.934Z,4.63
2017-10-27T16:46:24.232Z,4.77
2017-10-27T16:48:51.783Z,4.70
2017-10-27T16:51:19.334Z,3.97
2017-10-27T16:53:46.875Z,5.07
2017-10-27T16:56:14.412Z,4.37
2017-10-27T16:58:41.992Z,6.60
2017-10-27T17:01:09.506Z,4.57
2017-10-27T17:03:37.093Z,4.87
2017-10-27T17:06:04.788Z,7.23
2017-10-27T17:08:32.304Z,2.10
2017-10-27T17:11:00.608Z,2.17
2017-10-27T17:13:28.184Z,3.93
2017-10-27T17:15:55.756Z,5.30
2017-10-27T17:18:24.071Z,7.63
2017-10-27T17:20:51.618Z,4.10
2017-10-27T17:23:19.160Z,4.00
2017-10-27T17:25:46.697Z,6.90
2017-10-27T17:28:14.248Z,6.50
2017-10-27T17:30:41.761Z,3.87
2017-10-27T17:33:09.319Z,5.37
2017-10-27T17:35:36.874Z,6.53
2017-10-27T17:38:04.407Z,10.20
2017-10-27T17:40:31.920Z,6.87
2017-10-27T17:43:00.235Z,4.40
2017-10-27T17:45:27.758Z,7.70
2017-10-27T17:47:55.307Z,8.13
2017-10-27T17:50:22.851Z,7.93
2017-10-27T17:52:50.359Z,6.23
2017-10-27T17:55:18.711Z,5.33
2017-10-27T17:57:47.031Z,9.37
2017-10-27T18:00:15.329Z,5.37
2017-10-27T18:02:42.882Z,4.50
2017-10-27T18:05:10.423Z,3.77
2017-10-27T18:07:37.945Z,5.37
2017-10-27T18:10:05.498Z,7.30
2017-10-27T18:12:33.039Z,7.50
2017-10-27T18:15:00.550Z,5.63
2017-10-27T18:17:28.082Z,7.50
2017-10-27T18:19:55.631Z,6.27
2017-10-27T18:22:23.142Z,9.70
2017-10-27T18:24:52.100Z,9.47
2017-10-27T18:27:19.690Z,6.77
2017-10-27T18:29:47.255Z,7.17
2017-10-27T18:32:14.797Z,9.03
2017-10-27T18:34:42.575Z,8.13
2017-10-27T18:37:11.015Z,13.00
2017-10-27T18:39:38.802Z,8.13
2017-10-27T18:42:06.470Z,6.50
2017-10-27T18:44:34.120Z,5.27
2017-10-27T18:47:01.659Z,8.27
2017-10-27T18:49:30.130Z,13.13
2017-10-27T18:51:57.833Z,9.70
2017-10-27T18:54:25.536Z,5.93
2017-10-27T18:56:53.334Z,10.97
2017-10-27T18:59:20.974Z,12.40
2017-10-27T19:01:49.088Z,12.10
2017-10-27T19:04:16.677Z,12.23
2017-10-27T19:06:44.195Z,10.17
2017-10-27T19:09:11.714Z,7.37
2017-10-27T19:11:40.059Z,11.73
2017-10-27T19:14:07.725Z,6.73
2017-10-27T19:16:35.372Z,7.83
2017-10-27T19:19:03.005Z,8.20
2017-10-27T19:21:30.526Z,9.70
2017-10-27T19:23:58.311Z,7.10
2017-10-27T19:26:26.934Z,7.53
2017-10-27T19:28:55.387Z,8.80
2017-10-27T19:31:22.980Z,8.10
2017-10-27T19:33:50.596Z,8.77
2017-10-27T19:36:18.167Z,10.70
2017-10-27T19:38:45.856Z,6.23
2017-10-27T19:41:13.441Z,5.60
2017-10-27T19:43:40.974Z,9.97
2017-10-27T19:46:08.610Z,9.83
2017-10-27T19:48:36.320Z,9.40
2017-10-27T19:51:03.860Z,14.10
2017-10-27T19:53:32.177Z,12.13
2017-10-27T19:55:59.733Z,7.80
2017-10-27T19:58:27.322Z,16.53
2017-10-27T20:00:54.897Z,8.43
2017-10-27T20:03:22.482Z,9.93
2017-10-27T20:05:50.027Z,10.93
2017-10-27T20:08:18.540Z,9.17
2017-10-27T20:10:46.102Z,9.00
2017-10-27T20:13:13.663Z,9.23
2017-10-27T20:15:41.187Z,7.83
2017-10-27T20:18:08.928Z,9.70
2017-10-27T20:20:37.100Z,7.67
2017-10-27T20:23:04.643Z,6.00
2017-10-27T20:25:32.235Z,9.07
2017-10-27T20:28:00.538Z,6.97
2017-10-27T20:30:28.076Z,11.53
2017-10-27T20:32:55.757Z,6.33
2017-10-27T20:35:25.263Z,9.90
2017-10-27T20:37:52.948Z,14.57
2017-10-27T20:40:20.553Z,14.70
2017-10-27T20:42:48.078Z,10.63
2017-10-27T20:45:15.625Z,10.27
2017-10-27T20:47:43.241Z,9.13
2017-10-27T20:50:10.909Z,17.83
2017-10-27T20:52:38.528Z,7.93
2017-10-27T20:55:06.119Z,7.37
2017-10-27T20:57:33.732Z,6.53
2017-10-27T21:00:01.459Z,11.93
2017-10-27T21:02:29.174Z,3.63
2017-10-27T21:04:56.731Z,11.80
2017-10-27T21:07:24.524Z,11.13
2017-10-27T21:09:52.359Z,8.30
2017-10-27T21:12:20.940Z,3.87
2017-10-27T21:14:48.637Z,4.27
2017-10-27T21:17:17.104Z,5.80
2017-10-27T21:19:44.910Z,12.43
2017-10-27T21:22:13.132Z,7.27
2017-10-27T21:24:41.362Z,14.00
2017-10-27T21:27:11.646Z,8.87
2017-10-27T21:29:39.180Z,7.73
2017-10-27T21:32:06.907Z,4.97
2017-10-27T21:34:34.720Z,5.50
2017-10-27T21:37:02.479Z,15.53
2017-10-27T21:39:30.163Z,9.63
2017-10-27T21:41:57.708Z,9.70
2017-10-27T21:44:25.370Z,7.43
2017-10-27T21:46:53.094Z,9.87
2017-10-27T21:49:20.809Z,15.27
2017-10-27T21:51:48.351Z,11.90
2017-10-27T21:54:16.152Z,17.87
2017-10-27T21:56:43.717Z,12.87
2017-10-27T21:59:11.273Z,13.00
2017-10-27T22:01:39.090Z,11.43
2017-10-27T22:04:06.656Z,8.87
2017-10-27T22:06:34.219Z,7.50
2017-10-27T22:09:01.876Z,12.07
2017-10-27T22:11:29.483Z,8.57
2017-10-27T22:13:57.087Z,12.53
2017-10-27T22:16:24.798Z,10.67
2017-10-27T22:18:52.559Z,6.40
2017-10-27T22:21:20.083Z,9.07
2017-10-27T22:23:47.777Z,7.17
2017-10-27T22:26:16.180Z,7.83
2017-10-27T22:28:44.007Z,15.37
2017-10-27T22:31:12.473Z,17.00
2017-10-27T22:33:40.907Z,10.43
2017-10-27T22:36:08.513Z,12.50
2017-10-27T22:38:37.098Z,7.03
2017-10-27T22:41:04.810Z,10.67
2017-10-27T22:43:33.269Z,11.23
2017-10-27T22:46:01.791Z,11.67
2017-10-27T22:48:29.822Z,10.90
2017-10-27T22:50:57.859Z,9.10
2017-10-27T22:53:25.519Z,13.63
2017-10-27T22:55:53.410Z,11.40
2017-10-27T22:58:21.866Z,10.23
2017-10-27T23:00:52.811Z,5.77
2017-10-27T23:03:20.513Z,7.00
2017-10-27T23:05:54.074Z,10.17
2017-10-27T23:08:22.671Z,11.07
2017-10-27T23:10:50.254Z,6.03
2017-10-27T23:13:17.850Z,8.93
2017-10-27T23:15:45.491Z,12.53
2017-10-27T23:18:13.106Z,10.30
2017-10-27T23:20:40.836Z,11.93
2017-10-27T23:23:08.404Z,10.27
2017-10-27T23:25:36.108Z,9.33
2017-10-27T23:28:03.742Z,13.23
2017-10-27T23:30:31.280Z,9.63
2017-10-27T23:32:58.868Z,5.57
2017-10-27T23:35:26.632Z,14.67
2017-10-27T23:37:54.184Z,8.57
2017-10-27T23:40:21.777Z,10.03
2017-10-27T23:42:49.571Z,7.13
2017-10-27T23:45:17.120Z,10.00
2017-10-27T23:47:44.684Z,10.60
2017-10-27T23:50:13.005Z,8.57
2017-10-27T23:52:40.557Z,10.97
2017-10-27T23:55:08.099Z,7.03
2017-10-27T23:57:35.689Z,8.13
